sensor_id;sensor_type;location;lat;lon;timestamp;P1;P2;P0
62631;PMS5003;48703;51.248;-0.546;2022-12-10T00:02:04;47.06;45.03;
62631;PMS5003;48703;51.248;-0.546;2022-12-10T00:05:06;51.35;45.51;
62631;PMS5003;48703;51.248;-0.546;2022-12-10T00:08:07;48.43;44.91;
62631;PMS5003;48703;51.248;-0.546;2022-12-10T00:11:09;49.31;44.38;
62631;PMS5003;48703;51.248;-0.546;2022-12-10T00:14:10;48.83;43.90;
62631;PMS5003;48703;51.248;-0.546;2022-12-10T00:17:11;51.91;43.29;
62631;PMS5003;48703;51.248;-0.546;2022-12-10T00:20:13;45.41;41.58;
62631;PMS5003;48703;51.248;-0.546;2022-12-10T00:23:14;48.13;42.81;
62631;PMS5003;48703;51.248;-0.546;2022-12-10T00:26:17;48.52;41.99;
62631;PMS5003;48703;51.248;-0.546;2022-12-10T00:29:18;44.68;40.93;
62631;PMS5003;48703;51.248;-0.546;2022-12-10T00:32:20;46.91;41.51;
62631;PMS5003;48703;51.248;-0.546;2022-12-10T00:35:22;44.51;40.45;
62631;PMS5003;48703;51.248;-0.546;2022-12-10T00:38:23;45.16;41.43;
62631;PMS5003;48703;51.248;-0.546;2022-12-10T00:41:25;43.17;37.19;
62631;PMS5003;48703;51.248;-0.546;2022-12-10T00:44:26;43.26;36.97;
62631;PMS5003;48703;51.248;-0.546;2022-12-10T00:47:28;42.03;39.31;
62631;PMS5003;48703;51.248;-0.546;2022-12-10T00:50:30;41.91;38.35;
62631;PMS5003;48703;51.248;-0.546;2022-12-10T00:53:31;41.19;37.55;
62631;PMS5003;48703;51.248;-0.546;2022-12-10T00:56:32;43.13;37.84;
62631;PMS5003;48703;51.248;-0.546;2022-12-10T00:59:33;39.41;35.71;
62631;PMS5003;48703;51.248;-0.546;2022-12-10T01:02:34;35.88;34.43;
62631;PMS5003;48703;51.248;-0.546;2022-12-10T01:05:36;37.49;34.29;
62631;PMS5003;48703;51.248;-0.546;2022-12-10T01:08:37;36.56;31.21;
62631;PMS5003;48703;51.248;-0.546;2022-12-10T01:11:39;36.97;33.84;
62631;PMS5003;48703;51.248;-0.546;2022-12-10T01:14:40;32.40;29.30;
62631;PMS5003;48703;51.248;-0.546;2022-12-10T01:17:41;32.96;31.19;
62631;PMS5003;48703;51.248;-0.546;2022-12-10T01:20:42;33.43;30.87;
62631;PMS5003;48703;51.248;-0.546;2022-12-10T01:23:44;33.26;30.87;
62631;PMS5003;48703;51.248;-0.546;2022-12-10T01:26:44;35.78;32.90;
62631;PMS5003;48703;51.248;-0.546;2022-12-10T01:29:46;35.12;31.82;
62631;PMS5003;48703;51.248;-0.546;2022-12-10T01:32:47;37.04;33.80;
62631;PMS5003;48703;51.248;-0.546;2022-12-10T01:35:49;37.00;34.66;
62631;PMS5003;48703;51.248;-0.546;2022-12-10T01:38:51;37.68;34.91;
62631;PMS5003;48703;51.248;-0.546;2022-12-10T01:41:53;38.41;35.43;
62631;PMS5003;48703;51.248;-0.546;2022-12-10T01:44:59;41.62;37.25;
62631;PMS5003;48703;51.248;-0.546;2022-12-10T01:47:55;36.51;32.37;
62631;PMS5003;48703;51.248;-0.546;2022-12-10T01:50:57;36.43;34.23;
62631;PMS5003;48703;51.248;-0.546;2022-12-10T01:53:58;34.29;31.64;
62631;PMS5003;48703;51.248;-0.546;2022-12-10T01:57:00;38.96;35.22;
62631;PMS5003;48703;51.248;-0.546;2022-12-10T02:00:02;37.16;33.29;
62631;PMS5003;48703;51.248;-0.546;2022-12-10T02:03:04;38.71;37.03;
62631;PMS5003;48703;51.248;-0.546;2022-12-10T02:06:06;37.34;33.24;
62631;PMS5003;48703;51.248;-0.546;2022-12-10T02:09:06;41.93;37.67;
62631;PMS5003;48703;51.248;-0.546;2022-12-10T02:12:08;43.99;39.32;
62631;PMS5003;48703;51.248;-0.546;2022-12-10T02:15:09;42.93;38.46;
62631;PMS5003;48703;51.248;-0.546;2022-12-10T02:18:09;45.66;41.74;
62631;PMS5003;48703;51.248;-0.546;2022-12-10T02:21:12;42.88;40.16;
62631;PMS5003;48703;51.248;-0.546;2022-12-10T02:24:12;46.32;42.24;
62631;PMS5003;48703;51.248;-0.546;2022-12-10T02:27:14;47.42;42.54;
62631;PMS5003;48703;51.248;-0.546;2022-12-10T02:30:14;46.43;42.37;
62631;PMS5003;48703;51.248;-0.546;2022-12-10T02:33:16;42.87;40.36;
62631;PMS5003;48703;51.248;-0.546;2022-12-10T02:36:17;44.61;39.74;
62631;PMS5003;48703;51.248;-0.546;2022-12-10T02:39:19;39.77;37.17;
62631;PMS5003;48703;51.248;-0.546;2022-12-10T02:42:19;44.01;40.00;
62631;PMS5003;48703;51.248;-0.546;2022-12-10T02:45:21;40.71;36.70;
62631;PMS5003;48703;51.248;-0.546;2022-12-10T02:48:21;43.48;39.72;
62631;PMS5003;48703;51.248;-0.546;2022-12-10T02:51:22;42.77;39.57;
62631;PMS5003;48703;51.248;-0.546;2022-12-10T02:54:40;44.78;40.12;
62631;PMS5003;48703;51.248;-0.546;2022-12-10T02:57:27;41.93;36.90;
62631;PMS5003;48703;51.248;-0.546;2022-12-10T03:00:24;44.61;41.13;
62631;PMS5003;48703;51.248;-0.546;2022-12-10T03:03:28;42.96;38.23;
62631;PMS5003;48703;51.248;-0.546;2022-12-10T03:06:30;43.12;38.68;
62631;PMS5003;48703;51.248;-0.546;2022-12-10T03:09:30;37.61;35.68;
62631;PMS5003;48703;51.248;-0.546;2022-12-10T03:12:31;42.28;39.63;
62631;PMS5003;48703;51.248;-0.546;2022-12-10T03:15:33;44.71;39.82;
62631;PMS5003;48703;51.248;-0.546;2022-12-10T03:18:34;44.96;42.09;
62631;PMS5003;48703;51.248;-0.546;2022-12-10T03:21:34;45.74;40.78;
62631;PMS5003;48703;51.248;-0.546;2022-12-10T03:24:35;45.47;42.41;
62631;PMS5003;48703;51.248;-0.546;2022-12-10T03:27:36;44.43;40.44;
62631;PMS5003;48703;51.248;-0.546;2022-12-10T03:30:36;46.44;43.38;
62631;PMS5003;48703;51.248;-0.546;2022-12-10T03:33:38;46.01;42.79;
62631;PMS5003;48703;51.248;-0.546;2022-12-10T03:36:38;44.15;40.24;
62631;PMS5003;48703;51.248;-0.546;2022-12-10T03:39:41;44.59;41.64;
62631;PMS5003;48703;51.248;-0.546;2022-12-10T03:42:41;39.52;36.93;
62631;PMS5003;48703;51.248;-0.546;2022-12-10T03:45:43;45.09;39.14;
62631;PMS5003;48703;51.248;-0.546;2022-12-10T03:48:44;47.26;41.59;
62631;PMS5003;48703;51.248;-0.546;2022-12-10T03:51:46;44.25;40.35;
62631;PMS5003;48703;51.248;-0.546;2022-12-10T03:54:47;44.16;38.81;
62631;PMS5003;48703;51.248;-0.546;2022-12-10T03:57:47;46.10;41.25;
62631;PMS5003;48703;51.248;-0.546;2022-12-10T04:00:49;44.06;38.28;
62631;PMS5003;48703;51.248;-0.546;2022-12-10T04:03:49;44.77;41.13;
62631;PMS5003;48703;51.248;-0.546;2022-12-10T04:06:51;42.37;39.66;
62631;PMS5003;48703;51.248;-0.546;2022-12-10T04:09:52;46.76;41.44;
62631;PMS5003;48703;51.248;-0.546;2022-12-10T04:12:52;47.56;43.37;
62631;PMS5003;48703;51.248;-0.546;2022-12-10T04:15:55;47.42;41.83;
62631;PMS5003;48703;51.248;-0.546;2022-12-10T04:18:56;49.30;42.58;
62631;PMS5003;48703;51.248;-0.546;2022-12-10T04:21:56;43.44;39.49;
62631;PMS5003;48703;51.248;-0.546;2022-12-10T04:24:56;48.46;42.99;
62631;PMS5003;48703;51.248;-0.546;2022-12-10T04:27:57;47.51;43.01;
62631;PMS5003;48703;51.248;-0.546;2022-12-10T04:30:59;48.01;42.60;
62631;PMS5003;48703;51.248;-0.546;2022-12-10T04:34:01;47.04;41.35;
62631;PMS5003;48703;51.248;-0.546;2022-12-10T04:37:04;43.26;40.03;
62631;PMS5003;48703;51.248;-0.546;2022-12-10T04:40:06;44.25;38.85;
62631;PMS5003;48703;51.248;-0.546;2022-12-10T04:43:07;46.60;42.56;
62631;PMS5003;48703;51.248;-0.546;2022-12-10T04:46:08;43.15;39.62;
62631;PMS5003;48703;51.248;-0.546;2022-12-10T04:49:09;48.06;41.99;
62631;PMS5003;48703;51.248;-0.546;2022-12-10T04:52:11;42.34;39.61;
62631;PMS5003;48703;51.248;-0.546;2022-12-10T04:55:12;44.50;39.74;
62631;PMS5003;48703;51.248;-0.546;2022-12-10T04:58:13;41.01;35.16;
62631;PMS5003;48703;51.248;-0.546;2022-12-10T05:01:15;40.81;39.01;
62631;PMS5003;48703;51.248;-0.546;2022-12-10T05:04:17;44.46;40.49;
62631;PMS5003;48703;51.248;-0.546;2022-12-10T05:07:17;47.67;41.11;
62631;PMS5003;48703;51.248;-0.546;2022-12-10T05:10:17;47.04;41.70;
62631;PMS5003;48703;51.248;-0.546;2022-12-10T05:13:19;42.60;38.41;
62631;PMS5003;48703;51.248;-0.546;2022-12-10T05:16:21;45.97;39.70;
62631;PMS5003;48703;51.248;-0.546;2022-12-10T05:19:21;42.91;39.19;
62631;PMS5003;48703;51.248;-0.546;2022-12-10T05:22:22;45.15;41.56;
62631;PMS5003;48703;51.248;-0.546;2022-12-10T05:25:23;43.38;40.51;
62631;PMS5003;48703;51.248;-0.546;2022-12-10T05:28:25;43.06;38.72;
62631;PMS5003;48703;51.248;-0.546;2022-12-10T05:31:26;45.43;40.44;
62631;PMS5003;48703;51.248;-0.546;2022-12-10T05:34:27;43.63;39.10;
62631;PMS5003;48703;51.248;-0.546;2022-12-10T05:37:28;46.26;39.86;
62631;PMS5003;48703;51.248;-0.546;2022-12-10T05:40:29;41.49;37.72;
62631;PMS5003;48703;51.248;-0.546;2022-12-10T05:43:30;46.55;40.60;
62631;PMS5003;48703;51.248;-0.546;2022-12-10T05:46:32;44.62;39.49;
62631;PMS5003;48703;51.248;-0.546;2022-12-10T05:49:31;44.12;38.74;
62631;PMS5003;48703;51.248;-0.546;2022-12-10T05:52:32;42.51;39.19;
62631;PMS5003;48703;51.248;-0.546;2022-12-10T05:55:33;44.99;39.99;
62631;PMS5003;48703;51.248;-0.546;2022-12-10T05:58:33;42.32;38.18;
62631;PMS5003;48703;51.248;-0.546;2022-12-10T06:01:34;42.74;39.06;
62631;PMS5003;48703;51.248;-0.546;2022-12-10T06:04:35;43.35;38.39;
62631;PMS5003;48703;51.248;-0.546;2022-12-10T06:07:36;43.03;39.56;
62631;PMS5003;48703;51.248;-0.546;2022-12-10T06:10:37;42.30;38.09;
62631;PMS5003;48703;51.248;-0.546;2022-12-10T06:13:38;41.65;36.25;
62631;PMS5003;48703;51.248;-0.546;2022-12-10T06:16:40;41.51;38.47;
62631;PMS5003;48703;51.248;-0.546;2022-12-10T06:19:41;47.29;42.12;
62631;PMS5003;48703;51.248;-0.546;2022-12-10T06:22:42;41.74;38.00;
62631;PMS5003;48703;51.248;-0.546;2022-12-10T06:25:44;45.16;37.70;
62631;PMS5003;48703;51.248;-0.546;2022-12-10T06:28:45;44.86;40.19;
62631;PMS5003;48703;51.248;-0.546;2022-12-10T06:31:47;42.67;38.00;
62631;PMS5003;48703;51.248;-0.546;2022-12-10T06:34:48;42.37;37.41;
62631;PMS5003;48703;51.248;-0.546;2022-12-10T06:37:49;40.91;36.12;
62631;PMS5003;48703;51.248;-0.546;2022-12-10T06:40:50;43.41;38.76;
62631;PMS5003;48703;51.248;-0.546;2022-12-10T06:43:51;37.93;35.67;
62631;PMS5003;48703;51.248;-0.546;2022-12-10T06:46:53;43.25;37.81;
62631;PMS5003;48703;51.248;-0.546;2022-12-10T06:49:54;44.35;39.32;
62631;PMS5003;48703;51.248;-0.546;2022-12-10T06:52:55;41.79;36.57;
62631;PMS5003;48703;51.248;-0.546;2022-12-10T06:55:57;41.35;37.57;
62631;PMS5003;48703;51.248;-0.546;2022-12-10T06:58:56;37.81;34.65;
62631;PMS5003;48703;51.248;-0.546;2022-12-10T07:01:58;43.00;36.40;
62631;PMS5003;48703;51.248;-0.546;2022-12-10T07:04:59;37.42;34.14;
62631;PMS5003;48703;51.248;-0.546;2022-12-10T07:08:01;37.01;33.14;
62631;PMS5003;48703;51.248;-0.546;2022-12-10T07:11:03;38.70;34.97;
62631;PMS5003;48703;51.248;-0.546;2022-12-10T07:14:03;37.37;32.63;
62631;PMS5003;48703;51.248;-0.546;2022-12-10T07:17:04;38.97;34.28;
62631;PMS5003;48703;51.248;-0.546;2022-12-10T07:20:05;37.29;34.82;
62631;PMS5003;48703;51.248;-0.546;2022-12-10T07:23:06;37.31;35.62;
62631;PMS5003;48703;51.248;-0.546;2022-12-10T07:26:07;38.12;35.06;
62631;PMS5003;48703;51.248;-0.546;2022-12-10T07:29:09;40.72;35.90;
62631;PMS5003;48703;51.248;-0.546;2022-12-10T07:32:09;39.00;33.81;
62631;PMS5003;48703;51.248;-0.546;2022-12-10T07:35:09;40.41;35.75;
62631;PMS5003;48703;51.248;-0.546;2022-12-10T07:38:10;39.74;35.65;
62631;PMS5003;48703;51.248;-0.546;2022-12-10T07:41:12;41.43;37.25;
62631;PMS5003;48703;51.248;-0.546;2022-12-10T07:44:13;35.90;31.19;
62631;PMS5003;48703;51.248;-0.546;2022-12-10T07:47:14;32.93;30.96;
62631;PMS5003;48703;51.248;-0.546;2022-12-10T07:50:16;34.20;31.28;
62631;PMS5003;48703;51.248;-0.546;2022-12-10T07:53:17;33.87;30.14;
62631;PMS5003;48703;51.248;-0.546;2022-12-10T07:56:19;32.94;29.30;
62631;PMS5003;48703;51.248;-0.546;2022-12-10T07:59:20;33.22;29.62;
62631;PMS5003;48703;51.248;-0.546;2022-12-10T08:02:22;35.58;32.13;
62631;PMS5003;48703;51.248;-0.546;2022-12-10T08:05:24;34.76;31.13;
62631;PMS5003;48703;51.248;-0.546;2022-12-10T08:08:24;30.64;28.65;
62631;PMS5003;48703;51.248;-0.546;2022-12-10T08:11:26;27.88;27.35;
62631;PMS5003;48703;51.248;-0.546;2022-12-10T08:14:28;30.73;28.26;
62631;PMS5003;48703;51.248;-0.546;2022-12-10T08:17:29;31.00;28.21;
62631;PMS5003;48703;51.248;-0.546;2022-12-10T08:20:30;30.67;26.28;
62631;PMS5003;48703;51.248;-0.546;2022-12-10T08:23:31;31.00;27.61;
62631;PMS5003;48703;51.248;-0.546;2022-12-10T08:26:32;32.07;27.18;
62631;PMS5003;48703;51.248;-0.546;2022-12-10T08:29:34;32.04;27.99;
62631;PMS5003;48703;51.248;-0.546;2022-12-10T08:32:36;27.16;24.96;
62631;PMS5003;48703;51.248;-0.546;2022-12-10T08:35:37;31.03;27.30;
62631;PMS5003;48703;51.248;-0.546;2022-12-10T08:38:38;31.47;28.04;
62631;PMS5003;48703;51.248;-0.546;2022-12-10T08:41:40;30.51;28.43;
62631;PMS5003;48703;51.248;-0.546;2022-12-10T08:44:41;30.97;27.75;
62631;PMS5003;48703;51.248;-0.546;2022-12-10T08:47:42;31.78;29.24;
62631;PMS5003;48703;51.248;-0.546;2022-12-10T08:50:43;28.26;26.16;
62631;PMS5003;48703;51.248;-0.546;2022-12-10T08:53:45;27.66;24.64;
62631;PMS5003;48703;51.248;-0.546;2022-12-10T08:56:46;26.93;25.24;
62631;PMS5003;48703;51.248;-0.546;2022-12-10T08:59:46;28.76;25.59;
62631;PMS5003;48703;51.248;-0.546;2022-12-10T09:02:48;25.11;22.40;
62631;PMS5003;48703;51.248;-0.546;2022-12-10T09:05:50;27.29;24.06;
62631;PMS5003;48703;51.248;-0.546;2022-12-10T09:08:52;27.74;23.81;
62631;PMS5003;48703;51.248;-0.546;2022-12-10T09:11:53;25.99;23.17;
62631;PMS5003;48703;51.248;-0.546;2022-12-10T09:14:55;25.84;23.12;
62631;PMS5003;48703;51.248;-0.546;2022-12-10T09:17:56;23.24;21.00;
62631;PMS5003;48703;51.248;-0.546;2022-12-10T09:20:58;25.62;23.22;
62631;PMS5003;48703;51.248;-0.546;2022-12-10T09:23:59;25.86;22.43;
62631;PMS5003;48703;51.248;-0.546;2022-12-10T09:27:01;26.12;22.18;
62631;PMS5003;48703;51.248;-0.546;2022-12-10T09:30:02;24.59;23.26;
62631;PMS5003;48703;51.248;-0.546;2022-12-10T09:33:04;26.80;23.74;
62631;PMS5003;48703;51.248;-0.546;2022-12-10T09:36:06;25.62;23.35;
62631;PMS5003;48703;51.248;-0.546;2022-12-10T09:39:07;24.77;22.97;
62631;PMS5003;48703;51.248;-0.546;2022-12-10T09:42:13;23.86;21.76;
62631;PMS5003;48703;51.248;-0.546;2022-12-10T09:45:13;20.27;18.76;
62631;PMS5003;48703;51.248;-0.546;2022-12-10T09:48:15;28.50;23.12;
62631;PMS5003;48703;51.248;-0.546;2022-12-10T09:51:16;20.87;19.96;
62631;PMS5003;48703;51.248;-0.546;2022-12-10T09:54:16;23.19;21.75;
62631;PMS5003;48703;51.248;-0.546;2022-12-10T09:57:17;22.81;20.62;
62631;PMS5003;48703;51.248;-0.546;2022-12-10T10:00:19;21.41;19.68;
62631;PMS5003;48703;51.248;-0.546;2022-12-10T10:03:18;22.71;21.55;
62631;PMS5003;48703;51.248;-0.546;2022-12-10T10:06:20;26.47;22.21;
62631;PMS5003;48703;51.248;-0.546;2022-12-10T10:09:22;24.33;21.93;
62631;PMS5003;48703;51.248;-0.546;2022-12-10T10:12:25;23.34;22.11;
62631;PMS5003;48703;51.248;-0.546;2022-12-10T10:15:29;25.30;22.19;
62631;PMS5003;48703;51.248;-0.546;2022-12-10T10:18:29;28.68;26.07;
62631;PMS5003;48703;51.248;-0.546;2022-12-10T10:21:30;23.69;21.41;
62631;PMS5003;48703;51.248;-0.546;2022-12-10T10:24:33;22.87;21.86;
62631;PMS5003;48703;51.248;-0.546;2022-12-10T10:27:32;26.03;23.94;
62631;PMS5003;48703;51.248;-0.546;2022-12-10T10:30:34;24.71;24.16;
62631;PMS5003;48703;51.248;-0.546;2022-12-10T10:33:35;25.44;23.77;
62631;PMS5003;48703;51.248;-0.546;2022-12-10T10:36:37;23.59;21.86;
62631;PMS5003;48703;51.248;-0.546;2022-12-10T10:39:38;28.29;25.12;
62631;PMS5003;48703;51.248;-0.546;2022-12-10T10:42:40;26.50;21.79;
62631;PMS5003;48703;51.248;-0.546;2022-12-10T10:45:42;25.13;21.06;
62631;PMS5003;48703;51.248;-0.546;2022-12-10T10:48:42;25.06;22.96;
62631;PMS5003;48703;51.248;-0.546;2022-12-10T10:51:44;24.67;21.39;
62631;PMS5003;48703;51.248;-0.546;2022-12-10T10:54:45;20.56;20.24;
62631;PMS5003;48703;51.248;-0.546;2022-12-10T10:57:47;23.97;22.14;
62631;PMS5003;48703;51.248;-0.546;2022-12-10T11:00:57;25.58;23.74;
62631;PMS5003;48703;51.248;-0.546;2022-12-10T11:03:53;26.55;24.17;
62631;PMS5003;48703;51.248;-0.546;2022-12-10T11:06:52;29.46;27.03;
62631;PMS5003;48703;51.248;-0.546;2022-12-10T11:09:53;29.22;26.00;
62631;PMS5003;48703;51.248;-0.546;2022-12-10T11:12:55;32.53;27.76;
62631;PMS5003;48703;51.248;-0.546;2022-12-10T11:15:56;34.94;28.71;
62631;PMS5003;48703;51.248;-0.546;2022-12-10T11:18:57;27.61;25.23;
62631;PMS5003;48703;51.248;-0.546;2022-12-10T11:22:07;28.54;26.28;
62631;PMS5003;48703;51.248;-0.546;2022-12-10T11:24:59;30.83;26.84;
62631;PMS5003;48703;51.248;-0.546;2022-12-10T11:28:00;26.37;24.70;
62631;PMS5003;48703;51.248;-0.546;2022-12-10T11:31:05;30.04;26.23;
62631;PMS5003;48703;51.248;-0.546;2022-12-10T11:34:05;27.87;24.69;
62631;PMS5003;48703;51.248;-0.546;2022-12-10T11:37:06;26.31;24.19;
62631;PMS5003;48703;51.248;-0.546;2022-12-10T11:40:10;29.51;24.64;
62631;PMS5003;48703;51.248;-0.546;2022-12-10T11:43:13;27.99;25.21;
62631;PMS5003;48703;51.248;-0.546;2022-12-10T11:46:13;27.39;25.10;
62631;PMS5003;48703;51.248;-0.546;2022-12-10T11:49:14;26.57;24.51;
62631;PMS5003;48703;51.248;-0.546;2022-12-10T11:52:14;25.93;23.60;
62631;PMS5003;48703;51.248;-0.546;2022-12-10T11:55:17;25.30;23.26;
62631;PMS5003;48703;51.248;-0.546;2022-12-10T11:58:19;26.19;24.50;
62631;PMS5003;48703;51.248;-0.546;2022-12-10T12:01:18;27.19;25.57;
62631;PMS5003;48703;51.248;-0.546;2022-12-10T12:04:22;27.79;26.24;
62631;PMS5003;48703;51.248;-0.546;2022-12-10T12:07:23;26.52;25.74;
62631;PMS5003;48703;51.248;-0.546;2022-12-10T12:10:26;27.39;26.09;
62631;PMS5003;48703;51.248;-0.546;2022-12-10T12:13:22;31.41;29.71;
62631;PMS5003;48703;51.248;-0.546;2022-12-10T12:16:23;28.55;26.36;
62631;PMS5003;48703;51.248;-0.546;2022-12-10T12:19:27;30.29;26.17;
62631;PMS5003;48703;51.248;-0.546;2022-12-10T12:22:27;30.46;27.78;
62631;PMS5003;48703;51.248;-0.546;2022-12-10T12:25:29;32.10;28.72;
62631;PMS5003;48703;51.248;-0.546;2022-12-10T12:28:31;27.14;25.84;
62631;PMS5003;48703;51.248;-0.546;2022-12-10T12:31:30;31.25;27.79;
62631;PMS5003;48703;51.248;-0.546;2022-12-10T12:34:33;29.62;27.42;
62631;PMS5003;48703;51.248;-0.546;2022-12-10T12:37:34;27.49;24.68;
62631;PMS5003;48703;51.248;-0.546;2022-12-10T12:40:34;28.09;25.75;
62631;PMS5003;48703;51.248;-0.546;2022-12-10T12:43:39;29.16;26.07;
62631;PMS5003;48703;51.248;-0.546;2022-12-10T12:46:37;28.38;26.39;
62631;PMS5003;48703;51.248;-0.546;2022-12-10T12:49:38;29.49;25.99;
62631;PMS5003;48703;51.248;-0.546;2022-12-10T12:52:40;26.20;23.77;
62631;PMS5003;48703;51.248;-0.546;2022-12-10T12:55:44;28.77;25.56;
62631;PMS5003;48703;51.248;-0.546;2022-12-10T12:58:45;29.41;25.81;
62631;PMS5003;48703;51.248;-0.546;2022-12-10T13:01:47;33.60;31.23;
62631;PMS5003;48703;51.248;-0.546;2022-12-10T13:04:46;31.74;27.74;
62631;PMS5003;48703;51.248;-0.546;2022-12-10T13:08:15;26.16;23.61;
62631;PMS5003;48703;51.248;-0.546;2022-12-10T13:10:51;25.86;24.01;
62631;PMS5003;48703;51.248;-0.546;2022-12-10T13:14:29;38.42;32.97;
62631;PMS5003;48703;51.248;-0.546;2022-12-10T13:17:27;32.77;31.22;
62631;PMS5003;48703;51.248;-0.546;2022-12-10T13:20:24;29.41;27.26;
62631;PMS5003;48703;51.248;-0.546;2022-12-10T13:22:56;28.54;25.91;
62631;PMS5003;48703;51.248;-0.546;2022-12-10T13:25:58;28.04;24.93;
62631;PMS5003;48703;51.248;-0.546;2022-12-10T13:29:11;30.06;26.80;
62631;PMS5003;48703;51.248;-0.546;2022-12-10T13:32:01;24.25;23.33;
62631;PMS5003;48703;51.248;-0.546;2022-12-10T13:35:15;24.71;22.29;
62631;PMS5003;48703;51.248;-0.546;2022-12-10T13:38:04;24.06;21.65;
62631;PMS5003;48703;51.248;-0.546;2022-12-10T13:41:04;22.13;19.29;
62631;PMS5003;48703;51.248;-0.546;2022-12-10T13:44:21;23.59;21.32;
62631;PMS5003;48703;51.248;-0.546;2022-12-10T13:47:21;24.94;21.56;
62631;PMS5003;48703;51.248;-0.546;2022-12-10T13:50:15;19.21;17.49;
62631;PMS5003;48703;51.248;-0.546;2022-12-10T13:53:12;18.14;17.49;
62631;PMS5003;48703;51.248;-0.546;2022-12-10T13:56:13;21.30;19.87;
62631;PMS5003;48703;51.248;-0.546;2022-12-10T13:59:15;19.43;17.83;
62631;PMS5003;48703;51.248;-0.546;2022-12-10T14:02:19;20.28;17.99;
62631;PMS5003;48703;51.248;-0.546;2022-12-10T14:05:22;18.72;16.55;
62631;PMS5003;48703;51.248;-0.546;2022-12-10T14:11:20;16.17;15.48;
62631;PMS5003;48703;51.248;-0.546;2022-12-10T14:14:22;18.56;15.60;
62631;PMS5003;48703;51.248;-0.546;2022-12-10T14:17:23;17.20;15.59;
62631;PMS5003;48703;51.248;-0.546;2022-12-10T14:20:23;17.33;16.38;
62631;PMS5003;48703;51.248;-0.546;2022-12-10T14:23:25;15.80;14.58;
62631;PMS5003;48703;51.248;-0.546;2022-12-10T14:26:27;16.01;13.03;
62631;PMS5003;48703;51.248;-0.546;2022-12-10T14:29:28;17.99;15.51;
62631;PMS5003;48703;51.248;-0.546;2022-12-10T14:32:31;21.81;18.31;
62631;PMS5003;48703;51.248;-0.546;2022-12-10T14:35:31;15.22;13.49;
62631;PMS5003;48703;51.248;-0.546;2022-12-10T14:38:33;18.28;16.22;
62631;PMS5003;48703;51.248;-0.546;2022-12-10T14:41:35;15.30;14.37;
62631;PMS5003;48703;51.248;-0.546;2022-12-10T14:44:37;17.17;14.04;
62631;PMS5003;48703;51.248;-0.546;2022-12-10T14:47:38;17.99;15.43;
62631;PMS5003;48703;51.248;-0.546;2022-12-10T14:50:40;17.44;15.21;
62631;PMS5003;48703;51.248;-0.546;2022-12-10T14:53:42;13.39;12.43;
62631;PMS5003;48703;51.248;-0.546;2022-12-10T14:56:43;12.69;12.53;
62631;PMS5003;48703;51.248;-0.546;2022-12-10T14:59:46;14.00;12.63;
62631;PMS5003;48703;51.248;-0.546;2022-12-10T15:02:47;15.99;14.87;
62631;PMS5003;48703;51.248;-0.546;2022-12-10T15:05:53;21.19;19.33;
62631;PMS5003;48703;51.248;-0.546;2022-12-10T15:08:51;23.21;21.60;
62631;PMS5003;48703;51.248;-0.546;2022-12-10T15:11:53;17.30;16.03;
62631;PMS5003;48703;51.248;-0.546;2022-12-10T15:14:54;13.00;11.93;
62631;PMS5003;48703;51.248;-0.546;2022-12-10T15:17:58;11.60;10.53;
62631;PMS5003;48703;51.248;-0.546;2022-12-10T15:21:12;11.71;11.49;
62631;PMS5003;48703;51.248;-0.546;2022-12-10T15:24:09;12.16;10.57;
62631;PMS5003;48703;51.248;-0.546;2022-12-10T15:27:02;12.36;10.99;
62631;PMS5003;48703;51.248;-0.546;2022-12-10T15:29:28;11.33;11.14;
62631;PMS5003;48703;51.248;-0.546;2022-12-10T15:32:06;12.22;11.36;
62631;PMS5003;48703;51.248;-0.546;2022-12-10T15:35:10;12.44;10.60;
62631;PMS5003;48703;51.248;-0.546;2022-12-10T15:38:10;11.86;9.74;
62631;PMS5003;48703;51.248;-0.546;2022-12-10T15:41:22;11.70;11.10;
62631;PMS5003;48703;51.248;-0.546;2022-12-10T15:44:17;12.73;12.56;
62631;PMS5003;48703;51.248;-0.546;2022-12-10T15:47:15;14.74;13.75;
62631;PMS5003;48703;51.248;-0.546;2022-12-10T15:50:15;17.86;15.69;
62631;PMS5003;48703;51.248;-0.546;2022-12-10T15:53:19;20.11;18.69;
62631;PMS5003;48703;51.248;-0.546;2022-12-10T15:56:18;27.54;24.78;
62631;PMS5003;48703;51.248;-0.546;2022-12-10T15:59:19;31.01;27.49;
62631;PMS5003;48703;51.248;-0.546;2022-12-10T16:02:25;28.24;25.81;
62631;PMS5003;48703;51.248;-0.546;2022-12-10T16:05:24;29.72;26.39;
62631;PMS5003;48703;51.248;-0.546;2022-12-10T16:08:26;27.01;23.90;
62631;PMS5003;48703;51.248;-0.546;2022-12-10T16:11:27;23.91;22.66;
62631;PMS5003;48703;51.248;-0.546;2022-12-10T16:14:29;25.26;22.36;
62631;PMS5003;48703;51.248;-0.546;2022-12-10T16:17:30;21.84;19.90;
62631;PMS5003;48703;51.248;-0.546;2022-12-10T16:20:32;22.69;21.33;
62631;PMS5003;48703;51.248;-0.546;2022-12-10T16:23:34;21.77;19.58;
62631;PMS5003;48703;51.248;-0.546;2022-12-10T16:26:35;56.16;49.54;
62631;PMS5003;48703;51.248;-0.546;2022-12-10T16:29:37;27.81;25.38;
62631;PMS5003;48703;51.248;-0.546;2022-12-10T16:32:38;29.70;27.77;
62631;PMS5003;48703;51.248;-0.546;2022-12-10T16:35:39;31.46;29.71;
62631;PMS5003;48703;51.248;-0.546;2022-12-10T16:38:40;31.90;30.58;
62631;PMS5003;48703;51.248;-0.546;2022-12-10T16:41:41;34.34;32.79;
62631;PMS5003;48703;51.248;-0.546;2022-12-10T16:44:42;31.99;29.01;
62631;PMS5003;48703;51.248;-0.546;2022-12-10T16:47:44;33.22;30.93;
62631;PMS5003;48703;51.248;-0.546;2022-12-10T16:50:46;32.67;31.06;
62631;PMS5003;48703;51.248;-0.546;2022-12-10T16:53:47;35.49;32.30;
62631;PMS5003;48703;51.248;-0.546;2022-12-10T16:56:48;37.60;35.34;
62631;PMS5003;48703;51.248;-0.546;2022-12-10T16:59:49;38.13;35.59;
62631;PMS5003;48703;51.248;-0.546;2022-12-10T17:02:51;34.68;32.01;
62631;PMS5003;48703;51.248;-0.546;2022-12-10T17:05:52;32.68;30.58;
62631;PMS5003;48703;51.248;-0.546;2022-12-10T17:08:53;33.89;32.59;
62631;PMS5003;48703;51.248;-0.546;2022-12-10T17:11:55;34.86;32.40;
62631;PMS5003;48703;51.248;-0.546;2022-12-10T17:14:56;37.71;34.86;
62631;PMS5003;48703;51.248;-0.546;2022-12-10T17:17:57;40.81;39.57;
62631;PMS5003;48703;51.248;-0.546;2022-12-10T17:20:58;42.06;39.29;
62631;PMS5003;48703;51.248;-0.546;2022-12-10T17:23:59;47.03;43.83;
62631;PMS5003;48703;51.248;-0.546;2022-12-10T17:27:02;51.97;46.97;
62631;PMS5003;48703;51.248;-0.546;2022-12-10T17:30:00;59.49;54.28;
62631;PMS5003;48703;51.248;-0.546;2022-12-10T17:33:01;50.17;47.51;
62631;PMS5003;48703;51.248;-0.546;2022-12-10T17:36:02;67.62;60.16;
62631;PMS5003;48703;51.248;-0.546;2022-12-10T17:39:03;60.74;56.90;
62631;PMS5003;48703;51.248;-0.546;2022-12-10T17:42:05;65.72;59.44;
62631;PMS5003;48703;51.248;-0.546;2022-12-10T17:45:07;54.00;51.40;
62631;PMS5003;48703;51.248;-0.546;2022-12-10T17:48:09;60.48;55.19;
62631;PMS5003;48703;51.248;-0.546;2022-12-10T17:51:10;55.31;52.32;
62631;PMS5003;48703;51.248;-0.546;2022-12-10T17:54:10;62.59;57.12;
62631;PMS5003;48703;51.248;-0.546;2022-12-10T17:57:13;67.38;61.38;
62631;PMS5003;48703;51.248;-0.546;2022-12-10T18:00:14;58.59;53.78;